SWA4538 KTPA-KBNA
Flight info
| Callsign | SWA4538 |
|---|---|
| Flight time | N/A |
| Altitude | 38000 |
| Route | ENDED2 LACEN BRUTS Q118 THRSR SWFFT3 |
| Aircraft | B38M/M-SADE2E3GHIJ4J7P2RWZ/LB1D1 |
Departure
| Time | 2026-04-30 22:29 |
|---|---|
| Airport | Tampa International Airport (KTPA) |
Arrival
| Time | N/A |
|---|---|
| Airport | Nashville International Airport (KBNA) |
| Time | Latitude | Longitude | Altitude | Speed | Heading |
|---|---|---|---|---|---|
| 2026-04-30 22:02 | 27.98399 | -82.53183 | 45 ft | 0 kts | 228° |
| 2026-04-30 22:17 | 27.98401 | -82.53181 | 45 ft | 3 kts | 228° |
| 2026-04-30 22:17 | 27.98418 | -82.53159 | 45 ft | 4 kts | 237° |
| 2026-04-30 22:17 | 27.98424 | -82.53106 | 45 ft | 4 kts | 310° |
| 2026-04-30 22:18 | 27.98416 | -82.53097 | 44 ft | 1 kts | 317° |
| 2026-04-30 22:23 | 27.98427 | -82.53109 | 45 ft | 6 kts | 317° |
| 2026-04-30 22:23 | 27.98492 | -82.53146 | 43 ft | 16 kts | 357° |
| 2026-04-30 22:23 | 27.98566 | -82.53204 | 50 ft | 14 kts | 274° |
| 2026-04-30 22:23 | 27.98568 | -82.53294 | 57 ft | 9 kts | 272° |
| 2026-04-30 22:24 | 27.98570 | -82.53349 | 62 ft | 5 kts | 272° |
| 2026-04-30 22:24 | 27.98572 | -82.53401 | 63 ft | 10 kts | 272° |
| 2026-04-30 22:24 | 27.98575 | -82.53520 | 65 ft | 21 kts | 272° |
| 2026-04-30 22:24 | 27.98580 | -82.53698 | 52 ft | 24 kts | 270° |
| 2026-04-30 22:25 | 27.98586 | -82.53885 | 52 ft | 19 kts | 275° |
| 2026-04-30 22:25 | 27.98672 | -82.53952 | 48 ft | 18 kts | 358° |
| 2026-04-30 22:25 | 27.98808 | -82.53946 | 49 ft | 21 kts | 2° |
| 2026-04-30 22:25 | 27.98962 | -82.53940 | 49 ft | 23 kts | 1° |
| 2026-04-30 22:26 | 27.99242 | -82.53933 | 48 ft | 3 kts | 1° |
| 2026-04-30 22:26 | 27.99245 | -82.53933 | 48 ft | 0 kts | 2° |
| 2026-04-30 22:26 | 27.99318 | -82.53936 | 48 ft | 16 kts | 341° |
| 2026-04-30 22:27 | 27.99350 | -82.54012 | 49 ft | 11 kts | 273° |
| 2026-04-30 22:27 | 27.99344 | -82.54103 | 48 ft | 12 kts | 244° |
| 2026-04-30 22:27 | 27.99287 | -82.54134 | 49 ft | 0 kts | 181° |
| 2026-04-30 22:28 | 27.99279 | -82.54134 | 49 ft | 14 kts | 182° |
| 2026-04-30 22:28 | 27.98894 | -82.54148 | 48 ft | 94 kts | 182° |
| 2026-04-30 22:29 | 27.95399 | -82.54453 | 808 ft | 207 kts | 201° |
| 2026-04-30 22:29 | 27.93951 | -82.55019 | 1275 ft | 239 kts | 203° |
| 2026-04-30 22:30 | 27.90258 | -82.61024 | 5454 ft | 228 kts | 277° |
| 2026-04-30 22:31 | 27.93801 | -82.65109 | 7442 ft | 274 kts | 343° |
| 2026-04-30 22:32 | 27.99428 | -82.66699 | 10193 ft | 282 kts | 340° |
| 2026-04-30 22:32 | 28.03462 | -82.67875 | 11170 ft | 319 kts | 341° |
| 2026-04-30 22:33 | 28.10229 | -82.69826 | 13384 ft | 343 kts | 342° |
| 2026-04-30 22:33 | 28.14917 | -82.71146 | 14960 ft | 351 kts | 342° |
| 2026-04-30 22:34 | 28.22083 | -82.73155 | 17294 ft | 361 kts | 341° |
| 2026-04-30 22:35 | 28.27008 | -82.74534 | 18698 ft | 368 kts | 341° |
| 2026-04-30 22:36 | 28.37137 | -82.77369 | 21122 ft | 382 kts | 341° |
| 2026-04-30 22:36 | 28.39726 | -82.78094 | 21701 ft | 385 kts | 341° |
| 2026-04-30 22:37 | 28.47848 | -82.79508 | 23322 ft | 400 kts | 345° |
| 2026-04-30 22:37 | 28.50615 | -82.79975 | 23770 ft | 404 kts | 345° |
| 2026-04-30 22:37 | 28.56215 | -82.80933 | 24666 ft | 409 kts | 345° |
| 2026-04-30 22:38 | 28.61878 | -82.81951 | 25539 ft | 415 kts | 345° |
| 2026-04-30 22:38 | 28.67611 | -82.82985 | 26448 ft | 421 kts | 345° |
| 2026-04-30 22:39 | 28.70512 | -82.83508 | 26874 ft | 424 kts | 345° |
| 2026-04-30 22:39 | 28.79333 | -82.85101 | 28133 ft | 433 kts | 345° |
| 2026-04-30 22:40 | 28.88356 | -82.86731 | 29311 ft | 442 kts | 345° |
| 2026-04-30 22:41 | 28.97544 | -82.88395 | 30397 ft | 450 kts | 345° |
| 2026-04-30 22:41 | 29.03743 | -82.89520 | 31141 ft | 453 kts | 345° |
| 2026-04-30 22:42 | 29.16217 | -82.91786 | 32892 ft | 451 kts | 345° |
| 2026-04-30 22:43 | 29.22340 | -82.92901 | 33933 ft | 446 kts | 345° |
| 2026-04-30 22:43 | 29.28423 | -82.94011 | 34842 ft | 440 kts | 345° |
| 2026-04-30 22:44 | 29.34429 | -82.95107 | 35681 ft | 434 kts | 344° |
| 2026-04-30 22:45 | 29.46210 | -82.97260 | 37410 ft | 421 kts | 344° |
| 2026-04-30 22:45 | 29.51904 | -82.98473 | 37863 ft | 405 kts | 333° |
| 2026-04-30 22:47 | 29.67348 | -83.05745 | 37897 ft | 402 kts | 332° |
| 2026-04-30 22:48 | 29.77733 | -83.10703 | 37899 ft | 404 kts | 332° |
| 2026-04-30 22:49 | 29.93305 | -83.18161 | 37902 ft | 403 kts | 332° |
| 2026-04-30 22:51 | 30.08823 | -83.25618 | 37906 ft | 403 kts | 330° |
| 2026-04-30 22:52 | 30.16569 | -83.29350 | 37891 ft | 402 kts | 330° |
| 2026-04-30 22:53 | 30.26898 | -83.34333 | 37924 ft | 397 kts | 328° |
| 2026-04-30 22:53 | 30.34509 | -83.38011 | 37896 ft | 396 kts | 328° |
| 2026-04-30 22:55 | 30.47211 | -83.44162 | 37901 ft | 396 kts | 328° |
| 2026-04-30 22:56 | 30.57339 | -83.49079 | 37904 ft | 396 kts | 328° |
| 2026-04-30 22:57 | 30.70037 | -83.55259 | 37904 ft | 397 kts | 328° |
| 2026-04-30 22:58 | 30.80220 | -83.60229 | 37938 ft | 397 kts | 328° |
| 2026-04-30 22:59 | 30.95614 | -83.67763 | 37893 ft | 401 kts | 327° |